FW7475 Weather Reports


time (UTC)temp
C
wind
direction
speed
KPH
gust
KPH
rain 1hr
cm
rain 24hr
cm
rain mn
cm
humidity
%
barometer
mb
20211025041516 12 214 29.0 70.8 0.00 1.04 0.97 82
20211025040516 12 215 24.1 51.5 0.00 1.04 0.97 82
20211025035517 12 216 25.7 53.1 0.00 1.04 0.97 81
20211025034519 12 208 27.4 48.3 0.00 1.04 0.97 82
20211025033518 12 216 27.4 51.5 0.00 1.04 0.97 80
20211025032516 12 212 29.0 53.1 0.00 1.04 0.97 79
20211025031517 12 212 24.1 49.9 0.00 1.04 0.97 80
20211025030520 12 220 29.0 64.4 0.00 1.04 0.97 81
20211025025516 12 216 30.6 57.9 0.00 1.04 0.97 81
20211025024516 12 216 30.6 62.8 0.00 1.04 0.97 81
20211025023517 12 219 29.0 70.8 0.00 1.04 0.97 80
20211025022519 12 221 32.2 64.4 0.00 1.04 0.97 81
20211025021515 12 219 32.2 57.9 0.00 1.04 0.97 82
20211025020518 12 211 29.0 59.5 0.00 1.04 0.97 83
20211025015518 12 219 30.6 54.7 0.00 1.04 0.97 84
20211025014518 12 211 27.4 49.9 0.00 1.04 0.97 86
20211025013518 12 224 32.2 57.9 0.00 1.04 0.97 86
20211025012516 13 220 30.6 64.4 0.00 1.04 0.97 81
20211025011517 13 214 30.6 56.3 0.00 1.04 0.97 81
20211025010518 13 219 29.0 66.0 0.00 1.04 0.97 82
20211025005515 13 216 29.0 57.9 0.00 1.04 0.97 81
20211025004517 13 215 29.0 54.7 0.00 1.04 0.97 79
20211025003517 13 213 25.7 51.5 0.00 1.04 0.97 78
20211025002518 13 215 29.0 69.2 0.00 1.04 0.97 77
20211025001515 13 217 27.4 54.7 0.00 1.04 0.97 79
20211025000517 13 213 27.4 62.8 0.00 1.04 0.97 80
20211024235517 13 210 29.0 59.5 0.00 1.04 0.97 81
20211024234518 13 218 24.1 45.1 0.00 1.04 0.97 82
20211024233516 12 218 25.7 57.9 0.00 1.04 0.97 83
20211024232521 13 214 32.2 59.5 0.00 1.04 0.97 81
20211024231518 13 212 32.2 57.9 0.00 1.04 0.97 80
20211024230518 13 214 30.6 46.7 0.00 1.04 0.97 80
20211024225516 13 214 30.6 59.5 0.00 1.04 0.97 82
20211024224518 13 213 29.0 59.5 0.00 1.04 0.97 82
20211024223517 13 217 29.0 49.9 0.00 1.04 0.97 81
20211024222519 13 212 25.7 51.5 0.00 1.04 0.97 81
20211024221516 13 222 27.4 54.7 0.00 1.04 0.97 81
20211024220518 13 216 27.4 62.8 0.00 1.04 0.97 81
20211024215517 13 214 29.0 51.5 0.00 1.04 0.97 82
20211024214521 13 212 24.1 53.1 0.00 1.04 0.97 86
20211024213516 13 212 29.0 56.3 0.00 1.04 0.97 86
20211024212516 13 215 25.7 48.3 0.00 1.04 0.97 87
20211024211519 13 210 25.7 43.5 0.00 1.07 0.97 89
20211024210521 13 212 30.6 54.7 0.00 1.07 0.97 89
20211024205516 13 215 25.7 59.5 0.00 1.07 0.97 90
20211024204517 12 218 20.9 45.1 0.00 1.07 0.97 93
20211024203517 12 212 24.1 41.8 0.00 1.07 0.97 97
20211024202519 12 214 22.5 40.2 0.00 1.07 0.97 100
20211024201516 12 218 24.1 41.8 0.03 1.07 0.97 100
20211024200517 12 223 22.5 46.7 0.03 1.09 0.97 100
20211024195518 11 227 29.0 51.5 0.03 1.09 0.97 100
20211024194515 11 216 25.7 40.2 0.03 1.12 0.97 100
20211024193516 11 209 24.1 51.5 0.03 1.12 0.97 100
20211024192517 10 207 9.7 22.5 0.08 1.12 0.97 100
20211024191517 9 201 12.9 29.0 0.05 1.09 0.94 100
20211024190516 9 196 14.5 27.4 0.05 1.09 0.94 100
20211024185516 9 202 12.9 32.2 0.05 1.09 0.94 100
20211024184520 9 223 32.2 51.5 0.05 1.09 0.94 100
20211024183517 10 225 30.6 64.4 0.05 1.09 0.94 100
20211024182515 10 204 17.7 41.8 0.00 1.04 0.89 100
20211024181517 10 187 16.1 35.4 0.00 1.04 0.89 100
20211024180517 10 206 19.3 35.4 0.00 1.04 0.89 100
20211024175518 11 196 19.3 48.3 0.00 1.04 0.89 100
20211024174515 11 220 25.7 48.3 0.00 1.04 0.89 100
20211024173518 12 212 24.1 40.2 0.00 1.04 0.89 100
20211024172517 12 211 24.1 45.1 0.00 1.04 0.89 100
20211024171519 12 220 20.9 37.0 0.00 1.07 0.89 100
20211024170515 12 225 27.4 45.1 0.00 1.07 0.89 100
20211024165517 12 219 24.1 43.5 0.03 1.14 0.89 100
20211024164517 12 216 24.1 45.1 0.03 1.19 0.89 100
20211024163519 12 212 24.1 54.7 0.13 1.19 0.89 100
20211024162515 12 227 29.0 45.1 0.13 1.22 0.89 100
20211024161516 11 230 46.7 66.0 0.13 1.22 0.89 100
20211024160517 12 231 49.9 62.8 0.13 1.24 0.89 99
20211024155517 12 228 32.2 48.3 0.10 1.22 0.86 100
20211024154516 12 226 27.4 57.9 0.10 1.22 0.86 100
20211024153516 12 235 37.0 54.7 0.00 1.12 0.76 99
20211024152518 13 222 27.4 41.8 0.00 1.14 0.76 100
20211024151517 13 216 19.3 41.8 0.03 1.14 0.76 100
20211024150517 12 214 17.7 38.6 0.03 1.17 0.76 100
20211024145516 12 210 22.5 40.2 0.05 1.17 0.76 100
20211024144517 12 205 17.7 38.6 0.13 1.17 0.76 100
20211024143517 12 207 17.7 40.2 0.20 1.17 0.76 100
20211024142515 12 198 11.3 29.0 0.28 1.17 0.76 100
20211024141517 11 189 8.0 19.3 0.33 1.14 0.74 100
20211024140517 11 189 6.4 20.9 0.38 1.14 0.74 100
20211024135517 11 174 4.8 16.1 0.38 1.12 0.71 100
20211024134516 11 190 6.4 16.1 0.30 1.04 0.64 100
20211024133519 11 245 1.6 9.7 0.25 0.97 0.56 100
20211024132517 11 175 3.2 16.1 0.18 0.89 0.48 100
20211024131521 11 90 4.8 11.3 0.13 0.81 0.41 100
20211024130517 11 194 4.8 19.3 0.08 0.76 0.36 100
20211024125516 11 150 6.4 22.5 0.05 0.74 0.33 100
20211024124519 11 182 4.8 20.9 0.05 0.74 0.33 100
20211024123519 11 99 3.2 11.3 0.03 0.71 0.30 100
20211024122515 11 56 4.8 11.3 0.08 0.71 0.30 100
20211024121516 11 45 1.6 11.3 0.08 0.69 0.28 100
20211024120519 11 83 3.2 16.1 0.08 0.69 0.28 100
20211024115517 11 65 3.2 17.7 0.08 0.69 0.28 100
20211024114517 11 65 1.6 8.0 0.10 0.69 0.28 100
20211024113517 11 96 1.6 6.4 0.13 0.69 0.28 100
20211024112518 11 191 3.2 11.3 0.10 0.64 0.23 100
20211024111517 11 179 0.0 6.4 0.08 0.61 0.20 100
20211024110516 11 320 1.6 3.2 0.08 0.61 0.20 100
20211024105516 11 90 3.2 14.5 0.08 0.61 0.20 100
20211024104519 11 151 3.2 14.5 0.05 0.58 0.18 100
20211024103517 11 60 4.8 16.1 0.05 0.56 0.15 100
20211024102515 11 132 1.6 6.4 0.03 0.53 0.13 100
20211024101516 11 89 1.6 6.4 0.05 0.53 0.13 100
20211024100518 11 120 1.6 8.0 0.05 0.53 0.13 100
20211024095517 11 99 1.6 4.8 0.05 0.56 0.13 100
20211024094515 11 85 1.6 4.8 0.08 0.56 0.13 100
20211024093516 11 82 1.6 6.4 0.05 0.53 0.10 100
20211024092519 11 34 1.6 3.2 0.05 0.53 0.10 100
20211024091519 11 41 1.6 4.8 0.03 0.51 0.08 100
20211024090516 10 242 0.0 3.2 0.05 0.51 0.08 100
20211024085516 11 55 1.6 3.2 0.05 0.51 0.08 100
20211024084517 11 65 1.6 8.0 0.03 0.48 0.05 100
20211024083523 11 60 1.6 6.4 0.03 0.51 0.05 100
20211024082515 11 79 1.6 3.2 0.03 0.53 0.05 100
20211024081516 11 52 1.6 6.4 0.03 0.53 0.05 100
20211024080517 11 63 1.6 3.2 0.00 0.53 0.03 100
20211024075518 11 60 1.6 4.8 0.03 0.56 0.03 100
20211024074515 11 171 1.6 9.7 0.03 0.61 0.03 100
20211024073519 10 170 4.8 16.1 0.03 0.66 0.03 100
20211024072517 10 193 4.8 17.7 0.03 0.66 0.03 100
20211024071518 10 109 3.2 14.5 0.08 0.71 0.03 100
20211024070516 10 65 1.6 14.5 0.08 0.71 0.03 100
20211024065518 10 46 1.6 3.2 0.08 0.69 0.69 100
20211024064518 10 61 1.6 6.4 0.08 0.69 0.69 100
20211024063518 10 55 1.6 4.8 0.08 0.69 0.69 100
20211024062516 10 147 1.6 9.7 0.08 0.69 0.69 100
20211024061516 10 218 3.2 9.7 0.03 0.64 0.64 100
20211024060517 10 43 0.0 1.6 0.03 0.66 0.64 100
20211024055518 10 156 0.0 1.6 0.00 0.64 0.61 100
20211024054515 9 112 1.6 4.8 0.00 0.64 0.61 100
20211024053516 9 292 0.0 1.6 0.00 0.64 0.61 100
20211024052517 9 267 1.6 6.4 0.00 0.64 0.61 100
20211024051519 9 110 1.6 3.2 0.00 0.64 0.61 100
20211024050515 9 53 1.6 4.8 0.00 0.64 0.61 100
20211024045516 9 223 0.0 1.6 0.00 0.64 0.61 100
20211024044517 9 51 1.6 3.2 0.00 0.66 0.61 100
20211024043518 9 77 1.6 6.4 0.00 0.66 0.61 100
20211024042515 9 69 1.6 4.8 0.00 0.66 0.61 100